createdAt,value
2023-03-01T00:01:08.730Z,50.08
2023-03-01T00:03:36.344Z,50.30
2023-03-01T00:06:04.269Z,50.09
2023-03-01T00:08:31.488Z,50.07
2023-03-01T00:11:20.306Z,50.52
2023-03-01T00:13:49.913Z,50.31
2023-03-01T00:16:23.224Z,50.31
2023-03-01T00:18:50.203Z,50.34
2023-03-01T00:21:19.190Z,50.38
2023-03-01T00:23:46.122Z,50.32
2023-03-01T00:26:15.231Z,50.66
2023-03-01T00:28:42.667Z,50.37
2023-03-01T00:31:20.732Z,50.36
2023-03-01T00:33:47.717Z,49.97
2023-03-01T00:36:16.851Z,50.49
2023-03-01T00:38:48.277Z,50.04
2023-03-01T00:41:18.836Z,50.24
2023-03-01T00:43:46.197Z,50.20
2023-03-01T00:46:18.649Z,50.01
2023-03-01T00:48:46.340Z,50.33
2023-03-01T00:51:18.506Z,50.39
2023-03-01T00:53:46.497Z,50.32
2023-03-01T00:56:15.730Z,49.93
2023-03-01T00:58:43.228Z,49.67
2023-03-01T01:01:19.186Z,49.96
2023-03-01T01:03:56.784Z,49.94
2023-03-01T01:06:27.396Z,49.93
2023-03-01T01:08:55.982Z,49.91
2023-03-01T01:11:25.404Z,49.67
2023-03-01T01:13:52.521Z,50.00
2023-03-01T01:16:21.066Z,50.21
2023-03-01T01:18:48.117Z,50.00
2023-03-01T01:21:18.587Z,49.87
2023-03-01T01:23:47.161Z,50.32
2023-03-01T01:26:19.217Z,50.73
2023-03-01T01:28:48.384Z,50.73
2023-03-01T01:31:16.104Z,50.95
2023-03-01T01:33:43.481Z,50.99
2023-03-01T01:36:10.501Z,50.39
2023-03-01T01:38:38.982Z,50.62
2023-03-01T01:41:07.635Z,50.91
2023-03-01T01:43:42.730Z,50.54
2023-03-01T01:46:21.838Z,51.02
2023-03-01T01:48:55.312Z,50.52
2023-03-01T01:51:28.409Z,50.56
2023-03-01T01:54:01.452Z,50.32
2023-03-01T01:56:30.268Z,50.75
2023-03-01T01:58:57.930Z,50.58
2023-03-01T02:01:25.011Z,50.23
2023-03-01T02:03:53.380Z,50.62
2023-03-01T02:06:41.558Z,51.34
2023-03-01T02:09:15.065Z,50.64
2023-03-01T02:11:44.123Z,50.52
2023-03-01T02:14:11.247Z,50.70
2023-03-01T02:16:38.210Z,50.41
2023-03-01T02:19:06.271Z,50.78
2023-03-01T02:22:00.179Z,50.73
2023-03-01T02:24:42.182Z,51.29
2023-03-01T02:27:10.421Z,51.14
2023-03-01T02:29:37.254Z,50.54
2023-03-01T02:32:05.722Z,50.34
2023-03-01T02:34:33.873Z,50.40
2023-03-01T02:37:21.465Z,50.89
2023-03-01T02:39:53.606Z,50.61
2023-03-01T02:42:28.104Z,51.10
2023-03-01T02:47:21.839Z,51.03
2023-03-01T02:49:48.675Z,51.05
2023-03-01T02:52:46.145Z,50.74
2023-03-01T02:55:17.039Z,51.28
2023-03-01T02:57:46.753Z,51.40
2023-03-01T03:00:31.089Z,51.61
2023-03-01T03:02:58.188Z,51.25
2023-03-01T03:05:31.612Z,50.98
2023-03-01T03:08:01.957Z,51.30
2023-03-01T03:10:35.360Z,50.60
2023-03-01T03:13:11.292Z,50.67
2023-03-01T03:15:39.874Z,50.46
2023-03-01T03:18:12.143Z,50.47
2023-03-01T03:20:42.139Z,50.82
2023-03-01T03:23:09.041Z,50.33
2023-03-01T03:25:38.690Z,50.43
2023-03-01T03:28:10.487Z,50.67
2023-03-01T03:30:40.700Z,50.94
2023-03-01T03:33:08.384Z,51.19
2023-03-01T03:36:01.383Z,52.14
2023-03-01T03:38:28.293Z,51.77
2023-03-01T03:41:05.695Z,52.45
2023-03-01T03:43:36.791Z,52.50
2023-03-01T03:46:07.555Z,52.52
2023-03-01T03:48:38.278Z,52.37
2023-03-01T03:51:08.169Z,52.96
2023-03-01T03:53:35.168Z,52.93
2023-03-01T03:56:02.098Z,52.94
2023-03-01T03:58:28.987Z,53.10
2023-03-01T04:00:58.001Z,53.48
2023-03-01T04:03:26.914Z,53.46
2023-03-01T04:05:54.358Z,53.75
2023-03-01T04:08:23.641Z,53.66
2023-03-01T04:10:59.312Z,54.08
2023-03-01T04:13:26.612Z,54.04
2023-03-01T04:15:55.399Z,54.09
2023-03-01T04:18:24.311Z,53.88
2023-03-01T04:20:53.170Z,54.07
2023-03-01T04:23:21.829Z,54.13
2023-03-01T04:25:59.635Z,54.09
2023-03-01T04:28:36.804Z,54.09
2023-03-01T04:31:14.658Z,54.11
2023-03-01T04:33:52.436Z,54.01
2023-03-01T04:36:23.587Z,54.12
2023-03-01T04:38:51.262Z,54.55
2023-03-01T04:41:20.864Z,54.31
2023-03-01T04:43:49.440Z,54.46
2023-03-01T04:46:19.894Z,54.07
2023-03-01T04:48:48.221Z,54.58
2023-03-01T04:51:15.676Z,54.22
2023-03-01T04:53:43.499Z,54.04
2023-03-01T04:56:10.836Z,54.12
2023-03-01T04:58:38.064Z,54.27
2023-03-01T05:01:18.144Z,54.57
2023-03-01T05:03:47.530Z,54.35
2023-03-01T05:06:16.061Z,54.07
2023-03-01T05:08:44.139Z,54.25
2023-03-01T05:11:11.921Z,54.01
2023-03-01T05:13:40.305Z,53.69
2023-03-01T05:16:12.395Z,54.29
2023-03-01T05:18:40.129Z,54.50
2023-03-01T05:21:12.298Z,54.19
2023-03-01T05:23:39.656Z,54.60
2023-03-01T05:26:11.292Z,54.42
2023-03-01T05:28:40.689Z,54.23
2023-03-01T05:31:10.631Z,54.49
2023-03-01T05:33:39.228Z,54.29
2023-03-01T05:36:08.616Z,55.10
2023-03-01T05:38:35.680Z,54.58
2023-03-01T05:41:03.060Z,54.42
2023-03-01T05:43:35.521Z,54.70
2023-03-01T05:46:02.734Z,54.61
2023-03-01T05:48:29.961Z,54.70
2023-03-01T05:51:01.612Z,54.58
2023-03-01T05:53:28.603Z,54.26
2023-03-01T05:55:55.410Z,54.44
2023-03-01T05:58:22.701Z,54.72
2023-03-01T06:00:50.208Z,54.64
2023-03-01T06:03:18.748Z,54.47
2023-03-01T06:05:46.275Z,54.44
2023-03-01T06:08:14.604Z,54.81
2023-03-01T06:10:41.742Z,54.42
2023-03-01T06:13:08.901Z,54.26
2023-03-01T06:15:35.828Z,54.30
2023-03-01T06:18:02.691Z,54.11
2023-03-01T06:20:30.400Z,54.24
2023-03-01T06:22:57.795Z,53.84
2023-03-01T06:25:27.897Z,53.43
2023-03-01T06:27:55.036Z,53.52
2023-03-01T06:30:24.273Z,53.22
2023-03-01T06:32:51.431Z,52.98
2023-03-01T06:35:20.186Z,52.82
2023-03-01T06:37:48.504Z,53.04
2023-03-01T06:40:16.904Z,52.81
2023-03-01T06:42:50.113Z,52.53
2023-03-01T06:45:21.367Z,52.46
2023-03-01T06:47:48.711Z,51.80
2023-03-01T06:50:17.046Z,51.42
2023-03-01T06:55:14.085Z,50.27
2023-03-01T06:57:40.906Z,50.13
2023-03-01T07:00:09.416Z,50.12
2023-03-01T07:02:36.341Z,49.40
2023-03-01T07:05:03.220Z,49.53
2023-03-01T07:07:30.065Z,48.70
2023-03-01T07:09:56.864Z,48.37
2023-03-01T07:12:23.760Z,48.20
2023-03-01T07:14:50.536Z,48.01
2023-03-01T07:17:17.363Z,47.47
2023-03-01T07:19:45.844Z,47.74
2023-03-01T07:22:12.739Z,47.52
2023-03-01T07:24:39.525Z,46.71
2023-03-01T07:27:06.332Z,46.60
2023-03-01T07:29:33.277Z,45.75
2023-03-01T07:32:00.180Z,45.09
2023-03-01T07:34:27.169Z,45.90
2023-03-01T07:36:54.090Z,45.42
2023-03-01T07:39:20.971Z,45.70
2023-03-01T07:41:47.787Z,45.36
2023-03-01T07:44:14.608Z,45.36
2023-03-01T07:46:41.495Z,44.97
2023-03-01T07:49:08.289Z,44.59
2023-03-01T07:51:35.240Z,44.39
2023-03-01T07:54:02.061Z,44.44
2023-03-01T07:56:29.322Z,44.24
2023-03-01T07:58:56.350Z,43.63
2023-03-01T08:01:23.531Z,43.34
2023-03-01T08:03:50.460Z,43.49
2023-03-01T08:06:19.661Z,42.86
2023-03-01T08:08:46.907Z,42.43
2023-03-01T08:11:15.575Z,42.58
2023-03-01T08:13:43.536Z,42.01
2023-03-01T08:16:16.194Z,42.41
2023-03-01T08:18:44.519Z,42.99
2023-03-01T08:21:17.769Z,42.13
2023-03-01T08:23:45.302Z,42.82
2023-03-01T08:26:19.407Z,41.36
2023-03-01T08:28:47.470Z,41.34
2023-03-01T08:31:27.342Z,40.21
2023-03-01T08:33:58.524Z,41.39
2023-03-01T08:36:28.673Z,40.27
2023-03-01T08:38:55.891Z,40.20
2023-03-01T08:41:23.291Z,40.31
2023-03-01T08:43:50.800Z,40.13
2023-03-01T08:46:17.982Z,39.56
2023-03-01T08:48:45.040Z,40.57
2023-03-01T08:51:16.355Z,40.86
2023-03-01T08:53:43.580Z,40.11
2023-03-01T08:56:11.770Z,40.68
2023-03-01T08:58:40.752Z,40.27
2023-03-01T09:01:13.516Z,39.21
2023-03-01T09:03:40.663Z,37.83
2023-03-01T09:06:08.729Z,38.19
2023-03-01T09:08:37.949Z,36.68
2023-03-01T09:11:07.716Z,36.78
2023-03-01T09:13:35.171Z,37.64
2023-03-01T09:16:05.266Z,38.20
2023-03-01T09:18:32.821Z,39.72
2023-03-01T09:21:24.833Z,38.90
2023-03-01T09:23:59.444Z,39.97
2023-03-01T09:26:26.625Z,40.03
2023-03-01T09:28:56.472Z,40.14
2023-03-01T09:31:25.364Z,41.12
2023-03-01T09:33:54.718Z,40.38
2023-03-01T09:36:26.221Z,40.03
2023-03-01T09:38:54.238Z,40.69
2023-03-01T09:41:38.140Z,39.91
2023-03-01T09:44:34.982Z,39.42
2023-03-01T09:47:03.077Z,39.38
2023-03-01T09:49:34.647Z,38.95
2023-03-01T09:52:26.647Z,39.05
2023-03-01T09:54:59.408Z,39.45
2023-03-01T09:57:36.297Z,39.15
2023-03-01T10:00:32.509Z,39.93
2023-03-01T10:03:13.465Z,40.08
2023-03-01T10:05:54.398Z,41.34
2023-03-01T10:08:31.854Z,41.18
2023-03-01T10:10:59.718Z,40.33
2023-03-01T10:13:50.079Z,39.60
2023-03-01T10:16:41.828Z,38.51
2023-03-01T10:19:18.376Z,37.80
2023-03-01T10:21:47.212Z,39.07
2023-03-01T10:24:19.987Z,39.69
2023-03-01T10:27:01.684Z,39.01
2023-03-01T10:29:40.376Z,39.20
2023-03-01T10:32:07.753Z,37.42
2023-03-01T10:34:36.965Z,35.53
2023-03-01T10:37:19.243Z,35.32
2023-03-01T10:40:07.146Z,36.30
2023-03-01T10:42:40.560Z,35.15
2023-03-01T10:45:16.575Z,36.98
2023-03-01T10:47:43.876Z,36.09
2023-03-01T10:50:23.182Z,35.99
2023-03-01T10:53:05.150Z,37.57
2023-03-01T10:55:40.702Z,38.28
2023-03-01T10:58:18.329Z,35.39
2023-03-01T11:00:59.860Z,34.60
2023-03-01T11:03:35.315Z,35.13
2023-03-01T11:06:14.087Z,35.85
2023-03-01T11:08:47.216Z,35.82
2023-03-01T11:11:23.992Z,36.14
2023-03-01T11:14:28.386Z,36.13
2023-03-01T11:17:12.814Z,36.43
2023-03-01T11:19:39.883Z,35.45
2023-03-01T11:22:15.262Z,35.57
2023-03-01T11:24:54.774Z,35.30
2023-03-01T11:27:33.957Z,34.68
2023-03-01T11:30:19.478Z,34.72
2023-03-01T11:33:22.687Z,34.18
2023-03-01T11:36:01.528Z,34.82
2023-03-01T11:38:30.526Z,34.11
2023-03-01T11:41:19.505Z,35.16
2023-03-01T11:44:04.603Z,33.96
2023-03-01T11:46:34.474Z,34.32
2023-03-01T11:49:17.812Z,33.38
2023-03-01T11:52:08.006Z,32.22
2023-03-01T11:55:24.473Z,31.94
2023-03-01T11:58:05.443Z,32.76
2023-03-01T12:01:09.166Z,33.40
2023-03-01T12:04:35.730Z,32.27
2023-03-01T12:07:52.740Z,30.38
2023-03-01T12:10:30.368Z,30.59
2023-03-01T12:13:14.009Z,29.75
2023-03-01T12:15:49.867Z,28.38
2023-03-01T12:18:30.508Z,27.41
2023-03-01T12:21:16.979Z,28.46
2023-03-01T12:24:22.824Z,27.47
2023-03-01T12:27:11.807Z,25.63
2023-03-01T12:30:00.505Z,26.27
2023-03-01T12:32:53.835Z,25.81
2023-03-01T12:35:46.961Z,28.07
2023-03-01T12:38:35.311Z,26.87
2023-03-01T12:41:26.778Z,28.49
2023-03-01T12:44:19.241Z,29.08
2023-03-01T12:47:19.761Z,28.65
2023-03-01T12:49:53.285Z,27.16
2023-03-01T12:52:38.540Z,27.14
2023-03-01T12:55:26.886Z,26.74
2023-03-01T12:58:13.018Z,26.37
2023-03-01T13:01:05.873Z,26.54
2023-03-01T13:04:08.379Z,26.27
2023-03-01T13:07:17.663Z,25.68
2023-03-01T13:10:03.661Z,26.44
2023-03-01T13:12:57.535Z,26.16
2023-03-01T13:15:24.296Z,27.05
2023-03-01T13:18:02.787Z,26.71
2023-03-01T13:20:45.068Z,26.33
2023-03-01T13:23:21.409Z,27.33
2023-03-01T13:26:05.117Z,26.38
2023-03-01T13:28:57.972Z,25.96
2023-03-01T13:31:27.845Z,25.38
2023-03-01T13:33:59.353Z,24.73
2023-03-01T13:36:30.015Z,24.50
2023-03-01T13:39:03.051Z,24.87
2023-03-01T13:41:45.226Z,25.81
2023-03-01T13:44:29.993Z,26.88
2023-03-01T13:47:13.532Z,26.05
2023-03-01T13:50:04.651Z,26.45
2023-03-01T13:52:40.587Z,25.72
2023-03-01T13:55:44.682Z,25.85
2023-03-01T13:58:32.188Z,25.16
2023-03-01T14:01:08.036Z,25.83
2023-03-01T14:03:42.854Z,25.23
2023-03-01T14:06:27.472Z,26.34
2023-03-01T14:09:18.541Z,25.92
2023-03-01T14:12:03.434Z,25.26
2023-03-01T14:15:06.018Z,23.70
2023-03-01T14:18:03.319Z,23.51
2023-03-01T14:20:41.332Z,22.58
2023-03-01T14:23:19.751Z,21.45
2023-03-01T14:25:58.247Z,21.22
2023-03-01T14:28:27.395Z,20.39
2023-03-01T14:30:57.826Z,20.35
2023-03-01T14:33:38.162Z,20.03
2023-03-01T14:36:12.718Z,20.64
2023-03-01T14:38:40.539Z,20.17
2023-03-01T14:41:18.934Z,21.33
2023-03-01T14:43:50.184Z,22.46
2023-03-01T14:46:23.354Z,22.15
2023-03-01T14:48:57.861Z,21.48
2023-03-01T14:51:25.087Z,20.68
2023-03-01T14:53:52.698Z,20.88
2023-03-01T14:56:20.430Z,21.26
2023-03-01T14:58:52.546Z,21.59
2023-03-01T15:01:19.742Z,22.22
2023-03-01T15:03:49.551Z,22.08
2023-03-01T15:06:20.877Z,22.43
2023-03-01T15:08:52.208Z,22.50
2023-03-01T15:11:25.721Z,22.30
2023-03-01T15:13:53.737Z,21.89
2023-03-01T15:16:31.428Z,22.04
2023-03-01T15:19:01.467Z,23.54
2023-03-01T15:21:39.512Z,23.40
2023-03-01T15:24:21.584Z,23.02
2023-03-01T15:27:02.886Z,23.60
2023-03-01T15:29:34.155Z,23.26
2023-03-01T15:32:34.255Z,23.38
2023-03-01T15:35:42.893Z,24.54
2023-03-01T15:38:50.438Z,26.77
2023-03-01T15:41:33.513Z,28.82
2023-03-01T15:44:16.026Z,30.17
2023-03-01T15:46:49.036Z,32.61
2023-03-01T15:49:46.465Z,33.63
2023-03-01T15:52:30.414Z,34.42
2023-03-01T15:55:22.375Z,34.85
2023-03-01T15:57:50.097Z,35.34
2023-03-01T16:00:18.527Z,37.11
2023-03-01T16:02:45.947Z,36.72
2023-03-01T16:05:27.209Z,37.71
2023-03-01T16:07:54.859Z,38.03
2023-03-01T16:10:22.206Z,38.63
2023-03-01T16:12:52.560Z,38.51
2023-03-01T16:15:36.847Z,39.65
2023-03-01T16:18:04.438Z,39.16
2023-03-01T16:20:33.583Z,39.29
2023-03-01T16:23:03.821Z,40.67
2023-03-01T16:25:31.606Z,41.30
2023-03-01T16:28:01.134Z,41.63
2023-03-01T16:30:28.371Z,42.76
2023-03-01T16:32:55.182Z,43.08
2023-03-01T16:35:24.402Z,42.41
2023-03-01T16:37:53.574Z,42.76
2023-03-01T16:40:27.827Z,42.49
2023-03-01T16:43:00.277Z,42.99
2023-03-01T16:45:29.867Z,42.97
2023-03-01T16:47:56.711Z,43.30
2023-03-01T16:50:23.950Z,43.06
2023-03-01T16:52:50.803Z,43.53
2023-03-01T16:55:17.977Z,43.65
2023-03-01T16:57:44.988Z,44.58
2023-03-01T17:00:14.420Z,45.94
2023-03-01T17:02:42.592Z,45.79
2023-03-01T17:05:12.787Z,46.22
2023-03-01T17:07:40.376Z,46.23
2023-03-01T17:10:11.467Z,46.87
2023-03-01T17:12:38.887Z,47.27
2023-03-01T17:15:07.569Z,46.67
2023-03-01T17:17:36.086Z,47.88
2023-03-01T17:20:04.914Z,47.88
2023-03-01T17:22:31.961Z,48.25
2023-03-01T17:24:58.836Z,48.17
2023-03-01T17:27:25.756Z,48.42
2023-03-01T17:29:52.624Z,49.07
2023-03-01T17:32:19.802Z,48.44
2023-03-01T17:34:46.672Z,48.35
2023-03-01T17:37:13.582Z,48.61
2023-03-01T17:39:40.406Z,48.17
2023-03-01T17:42:07.338Z,48.78
2023-03-01T17:44:34.845Z,48.68
2023-03-01T17:47:03.761Z,48.88
2023-03-01T17:49:31.167Z,48.88
2023-03-01T17:51:58.324Z,49.63
2023-03-01T17:54:25.472Z,50.34
2023-03-01T17:56:52.786Z,49.70
2023-03-01T17:59:20.045Z,50.14
2023-03-01T18:01:47.353Z,49.84
2023-03-01T18:04:14.566Z,49.62
2023-03-01T18:06:41.750Z,49.73
2023-03-01T18:09:09.035Z,50.86
2023-03-01T18:11:36.860Z,50.35
2023-03-01T18:14:04.676Z,50.53
2023-03-01T18:16:33.856Z,50.43
2023-03-01T18:19:01.873Z,50.87
2023-03-01T18:21:30.708Z,50.69
2023-03-01T18:23:59.605Z,51.96
2023-03-01T18:26:27.685Z,51.73
2023-03-01T18:28:58.092Z,52.08
2023-03-01T18:31:25.501Z,51.96
2023-03-01T18:33:57.629Z,51.61
2023-03-01T18:36:27.751Z,52.07
2023-03-01T18:38:56.424Z,53.25
2023-03-01T18:41:26.368Z,52.88
2023-03-01T18:43:54.194Z,53.14
2023-03-01T18:46:21.966Z,54.01
2023-03-01T18:48:49.274Z,53.82
2023-03-01T18:51:19.873Z,53.77
2023-03-01T18:53:47.428Z,53.55
2023-03-01T18:56:14.455Z,53.55
2023-03-01T18:58:43.031Z,54.10
2023-03-01T19:01:19.925Z,53.36
2023-03-01T19:03:47.580Z,53.67
2023-03-01T19:06:15.034Z,53.67
2023-03-01T19:08:44.203Z,54.12
2023-03-01T19:11:13.994Z,54.39
2023-03-01T19:13:41.405Z,54.27
2023-03-01T19:16:15.482Z,55.25
2023-03-01T19:18:50.013Z,54.09
2023-03-01T19:21:20.632Z,54.64
2023-03-01T19:23:48.712Z,54.68
2023-03-01T19:26:19.908Z,53.90
2023-03-01T19:28:47.737Z,53.76
2023-03-01T19:31:18.711Z,53.74
2023-03-01T19:33:45.670Z,53.62
2023-03-01T19:36:14.025Z,53.78
2023-03-01T19:38:42.786Z,53.72
2023-03-01T19:41:17.898Z,53.83
2023-03-01T19:43:46.904Z,53.94
2023-03-01T19:46:15.566Z,53.95
2023-03-01T19:48:44.975Z,53.96
2023-03-01T19:51:12.684Z,53.82
2023-03-01T19:53:40.577Z,54.04
2023-03-01T19:56:08.121Z,53.67
2023-03-01T19:58:34.940Z,54.26
2023-03-01T20:01:02.020Z,53.73
2023-03-01T20:03:32.043Z,54.14
2023-03-01T20:05:59.737Z,53.86
2023-03-01T20:08:26.646Z,53.78
2023-03-01T20:10:53.576Z,53.55
2023-03-01T20:13:23.167Z,53.76
2023-03-01T20:15:50.092Z,53.43
2023-03-01T20:18:16.956Z,53.11
2023-03-01T20:20:50.128Z,53.41
2023-03-01T20:23:18.892Z,53.19
2023-03-01T20:25:48.417Z,52.88
2023-03-01T20:28:17.020Z,53.41
2023-03-01T20:30:44.537Z,53.14
2023-03-01T20:33:11.698Z,53.31
2023-03-01T20:35:43.160Z,53.21
2023-03-01T20:38:10.266Z,53.39
2023-03-01T20:40:37.938Z,54.28
2023-03-01T20:43:04.902Z,53.73
2023-03-01T20:45:32.137Z,54.08
2023-03-01T20:47:59.157Z,54.23
2023-03-01T20:50:26.002Z,53.90
2023-03-01T20:52:52.893Z,53.88
2023-03-01T20:55:19.907Z,53.93
2023-03-01T20:57:46.815Z,54.34
2023-03-01T21:00:14.064Z,54.84
2023-03-01T21:02:40.986Z,54.67
2023-03-01T21:05:08.236Z,54.99
2023-03-01T21:07:35.112Z,55.06
2023-03-01T21:10:02.038Z,55.68
2023-03-01T21:12:28.902Z,55.22
2023-03-01T21:14:55.700Z,55.05
2023-03-01T21:17:22.532Z,54.34
2023-03-01T21:19:50.646Z,54.41
2023-03-01T21:22:17.601Z,54.35
2023-03-01T21:24:45.033Z,53.66
2023-03-01T21:27:12.172Z,53.64
2023-03-01T21:29:42.184Z,54.02
2023-03-01T21:32:10.418Z,53.64
2023-03-01T21:34:38.129Z,54.10
2023-03-01T21:37:06.211Z,54.41
2023-03-01T21:39:33.755Z,54.65
2023-03-01T21:42:02.402Z,54.50
2023-03-01T21:44:31.526Z,54.46
2023-03-01T21:46:59.189Z,54.53
2023-03-01T21:49:26.953Z,54.68
2023-03-01T21:51:54.044Z,54.57
2023-03-01T21:54:21.364Z,54.27
2023-03-01T21:56:49.290Z,54.37
2023-03-01T21:59:20.911Z,54.64
2023-03-01T22:01:49.343Z,54.87
2023-03-01T22:04:18.144Z,54.77
2023-03-01T22:06:46.961Z,55.15
2023-03-01T22:09:23.889Z,55.26
2023-03-01T22:11:54.470Z,55.37
2023-03-01T22:14:22.066Z,55.68
2023-03-01T22:16:51.426Z,55.53
2023-03-01T22:19:19.015Z,55.87
2023-03-01T22:21:50.107Z,56.11
2023-03-01T22:24:20.703Z,56.62
2023-03-01T22:26:50.293Z,56.35
2023-03-01T22:29:29.127Z,56.90
2023-03-01T22:31:57.545Z,56.67
2023-03-01T22:34:25.199Z,56.65
2023-03-01T22:36:52.321Z,57.03
2023-03-01T22:39:20.842Z,56.74
2023-03-01T22:41:49.647Z,56.97
2023-03-01T22:44:20.137Z,57.32
2023-03-01T22:46:47.503Z,57.43
2023-03-01T22:49:14.948Z,57.36
2023-03-01T22:51:43.706Z,57.74
2023-03-01T22:54:11.387Z,57.82
2023-03-01T22:56:39.399Z,57.91
2023-03-01T22:59:09.665Z,58.11
2023-03-01T23:01:38.628Z,57.63
2023-03-01T23:04:06.168Z,58.10
2023-03-01T23:06:33.853Z,57.95
2023-03-01T23:09:04.153Z,58.08
2023-03-01T23:11:31.287Z,57.82
2023-03-01T23:13:59.155Z,58.76
2023-03-01T23:16:26.457Z,57.96
2023-03-01T23:18:56.219Z,58.31
2023-03-01T23:21:23.307Z,58.50
2023-03-01T23:23:51.007Z,58.77
2023-03-01T23:26:18.854Z,58.44
2023-03-01T23:28:45.906Z,58.61
2023-03-01T23:31:14.804Z,58.67
2023-03-01T23:33:45.035Z,58.42
2023-03-01T23:36:18.622Z,58.53
2023-03-01T23:38:47.539Z,58.51
2023-03-01T23:41:21.210Z,58.44
2023-03-01T23:43:54.740Z,58.73
2023-03-01T23:46:25.094Z,58.86
2023-03-01T23:48:53.244Z,58.78
2023-03-01T23:51:21.291Z,59.00
2023-03-01T23:53:55.920Z,59.05
2023-03-01T23:56:36.517Z,59.42
2023-03-01T23:59:14.312Z,58.96
